Burlington, CO

3:46 PM MST on December 03, 2016 (GMT -0700)
Kit Carson County | | Change Station

Elev 4216 ft 39.24 °N, 102.28 °W | Updated 53 minutes ago

Clear
Clear
43 °F
Feels Like 39 °F
N
7
Wind Variable Wind from WSW

Today
High -- | Low -- °F
--% Chance of Precip.
Yesterday
High -- | Low -- °F
Precip. -- in
Pressure 29.99 in
Visibility 10.0 miles
Clouds Clear
Windchill 39 °F
Dew Point 23 °F
Humidity 45%
Rainfall 0.00 in
Snow Depth Not available.
6:52 AM 4:25 PM
Waxing Crescent, 17% visible
METAR KITR 032153Z AUTO 24006KT 10SM CLR 06/M05 A2995 RMK AO2 SLP154 T00611050
Pressure 29.99 in
Visibility 10.0 miles
Clouds Clear
Windchill 39 °F
Dew Point 23 °F
Humidity 45%
Rainfall 0.00 in
Snow Depth Not available.
6:52 AM 4:25 PM
Waxing Crescent, 17% visible
METAR KITR 032153Z AUTO 24006KT 10SM CLR 06/M05 A2995 RMK AO2 SLP154 T00611050

10-Day Weather Forecast

Almanac

Astronomy

Dec. 03, 2016 Rise Set
Actual Time
Civil Twilight
Nautical Twilight
Astronomical Twilight
Moon
Length of Visible Light
Length of Day
Tomorrow will be .
, % of the Moon is Illuminated

Today's Extremes

State Highs State Lows

Community

WunderPhotos

Upload Photos

1,955,536 photos uploaded!

WunderBlog® & News

Nearby

Air Quality

  Air Quality AQ Index Pollutant
Not available.

Snow Depth

Station Depth Elevation

Earthquake Activity

City Distance Mag. Time & Date
Minimum magnitude displayed is 2.5.

Coastal Water Temperatures

Place Temperature

Stations

Nearby Weather Stations

Station Location Temp. Windchill Dew Point Humidity Wind Precip. Elev Updated Type
                   

Watches & Warnings

There are currently no watches in effect.